createdAt,value
2018-12-10T00:00:02.519Z,7.00
2018-12-10T00:02:30.088Z,7.10
2018-12-10T00:04:57.631Z,7.00
2018-12-10T00:07:25.199Z,7.00
2018-12-10T00:09:53.508Z,6.80
2018-12-10T00:12:21.077Z,6.80
2018-12-10T00:14:48.635Z,6.90
2018-12-10T00:17:16.214Z,6.90
2018-12-10T00:19:43.748Z,6.90
2018-12-10T00:22:11.323Z,6.90
2018-12-10T00:24:38.861Z,6.80
2018-12-10T00:27:06.432Z,6.90
2018-12-10T00:29:34.941Z,6.90
2018-12-10T00:32:02.511Z,6.80
2018-12-10T00:34:30.040Z,6.70
2018-12-10T00:36:57.603Z,6.70
2018-12-10T00:39:25.132Z,6.70
2018-12-10T00:41:52.707Z,6.70
2018-12-10T00:44:21.233Z,6.70
2018-12-10T00:46:48.799Z,6.70
2018-12-10T00:49:18.073Z,6.60
2018-12-10T00:51:45.644Z,6.60
2018-12-10T00:54:13.188Z,6.60
2018-12-10T00:56:40.759Z,6.70
2018-12-10T00:59:09.059Z,6.50
2018-12-10T01:01:36.638Z,6.50
2018-12-10T01:04:04.175Z,6.50
2018-12-10T01:06:31.751Z,6.70
2018-12-10T01:08:59.279Z,6.70
2018-12-10T01:11:26.856Z,6.70
2018-12-10T01:13:54.392Z,6.70
2018-12-10T01:16:21.956Z,6.80
2018-12-10T01:18:49.503Z,6.80
2018-12-10T01:21:17.079Z,6.80
2018-12-10T01:23:44.653Z,6.80
2018-12-10T01:26:12.196Z,6.80
2018-12-10T01:28:40.720Z,6.80
2018-12-10T01:31:08.290Z,6.70
2018-12-10T01:33:35.855Z,6.60
2018-12-10T01:36:04.375Z,6.60
2018-12-10T01:38:32.038Z,6.50
2018-12-10T01:41:01.563Z,6.60
2018-12-10T01:43:31.076Z,6.60
2018-12-10T01:45:59.579Z,6.60
2018-12-10T01:48:27.146Z,6.70
2018-12-10T01:50:56.448Z,6.60
2018-12-10T01:53:24.779Z,6.50
2018-12-10T01:55:52.311Z,6.50
2018-12-10T01:58:20.645Z,6.40
2018-12-10T02:00:48.993Z,6.40
2018-12-10T02:03:16.569Z,6.40
2018-12-10T02:05:45.071Z,6.40
2018-12-10T02:08:14.565Z,6.50
2018-12-10T02:10:43.102Z,6.50
2018-12-10T02:13:10.672Z,6.40
2018-12-10T02:15:39.171Z,6.40
2018-12-10T02:18:06.732Z,6.40
2018-12-10T02:20:35.039Z,6.40
2018-12-10T02:23:02.619Z,6.40
2018-12-10T02:25:30.168Z,6.40
2018-12-10T02:27:57.746Z,6.40
2018-12-10T02:30:25.325Z,6.30
2018-12-10T02:32:52.855Z,6.30
2018-12-10T02:35:20.436Z,6.30
2018-12-10T02:37:47.980Z,6.40
2018-12-10T02:40:15.549Z,6.30
2018-12-10T02:42:43.118Z,6.30
2018-12-10T02:45:10.647Z,6.30
2018-12-10T02:47:38.211Z,6.30
2018-12-10T02:50:05.798Z,6.30
2018-12-10T02:52:34.095Z,6.50
2018-12-10T02:55:01.657Z,6.40
2018-12-10T02:57:29.241Z,6.50
2018-12-10T02:59:57.747Z,6.60
2018-12-10T03:02:25.317Z,6.60
2018-12-10T03:04:52.862Z,6.60
2018-12-10T03:07:20.436Z,6.60
2018-12-10T03:09:48.737Z,6.70
2018-12-10T03:12:16.304Z,6.70
2018-12-10T03:14:43.835Z,6.80
2018-12-10T03:17:11.409Z,6.80
2018-12-10T03:19:38.972Z,6.90
2018-12-10T03:22:06.507Z,6.70
2018-12-10T03:24:34.071Z,6.60
2018-12-10T03:27:01.651Z,6.50
2018-12-10T03:29:30.157Z,6.50
2018-12-10T03:31:57.748Z,6.30
2018-12-10T03:34:27.019Z,6.20
2018-12-10T03:36:54.609Z,6.20
2018-12-10T03:39:22.147Z,6.20
2018-12-10T03:41:49.684Z,6.10
2018-12-10T03:44:17.248Z,6.10
2018-12-10T03:46:45.855Z,6.20
2018-12-10T03:49:13.419Z,6.10
2018-12-10T03:51:40.952Z,5.90
2018-12-10T03:54:08.531Z,5.90
2018-12-10T03:56:36.882Z,6.10
2018-12-10T03:59:04.422Z,6.10
2018-12-10T04:01:31.991Z,6.00
2018-12-10T04:03:59.523Z,6.20
2018-12-10T04:06:27.108Z,6.20
2018-12-10T04:08:54.653Z,5.90
2018-12-10T04:11:22.232Z,5.80
2018-12-10T04:13:49.776Z,5.60
2018-12-10T04:16:17.360Z,5.60
2018-12-10T04:18:44.899Z,5.70
2018-12-10T04:21:12.483Z,5.90
2018-12-10T04:23:40.127Z,5.90
2018-12-10T04:26:07.636Z,6.00
2018-12-10T04:28:35.309Z,5.80
2018-12-10T04:31:02.851Z,5.80
2018-12-10T04:33:30.415Z,5.90
2018-12-10T04:35:57.979Z,5.90
2018-12-10T04:38:25.544Z,5.60
2018-12-10T04:40:53.090Z,5.50
2018-12-10T04:43:20.659Z,5.60
2018-12-10T04:45:49.170Z,5.60
2018-12-10T04:48:16.753Z,5.50
2018-12-10T04:50:46.261Z,5.30
2018-12-10T04:53:13.800Z,5.20
2018-12-10T04:55:41.383Z,5.20
2018-12-10T04:58:08.920Z,5.20
2018-12-10T05:00:36.487Z,5.20
2018-12-10T05:03:04.029Z,5.20
2018-12-10T05:05:32.360Z,5.20
2018-12-10T05:07:59.897Z,5.20
2018-12-10T05:10:27.473Z,5.20
2018-12-10T05:12:55.011Z,5.00
2018-12-10T05:15:22.552Z,5.10
2018-12-10T05:17:50.120Z,5.20
2018-12-10T05:20:17.652Z,5.20
2018-12-10T05:22:45.183Z,5.20
2018-12-10T05:25:12.750Z,5.20
2018-12-10T05:27:40.313Z,5.10
2018-12-10T05:30:07.853Z,5.10
2018-12-10T05:32:35.711Z,5.30
2018-12-10T05:35:03.221Z,5.20
2018-12-10T05:37:30.791Z,5.30
2018-12-10T05:39:58.328Z,5.30
2018-12-10T05:42:25.896Z,5.60
2018-12-10T05:44:53.440Z,5.60
2018-12-10T05:47:21.004Z,5.70
2018-12-10T05:49:48.536Z,5.70
2018-12-10T05:52:16.111Z,5.50
2018-12-10T05:54:43.672Z,5.40
2018-12-10T05:57:11.208Z,5.40
2018-12-10T05:59:38.771Z,5.50
2018-12-10T06:02:06.346Z,5.50
2018-12-10T06:04:33.923Z,5.50
2018-12-10T06:07:01.464Z,5.40
2018-12-10T06:09:29.001Z,5.30
2018-12-10T06:11:58.334Z,5.40
2018-12-10T06:14:25.863Z,5.40
2018-12-10T06:16:54.412Z,5.30
2018-12-10T06:19:21.943Z,5.30
2018-12-10T06:21:49.512Z,5.40
2018-12-10T06:24:17.040Z,5.40
2018-12-10T06:26:44.611Z,5.40
2018-12-10T06:29:12.145Z,5.50
2018-12-10T06:31:39.715Z,5.30
2018-12-10T06:34:09.147Z,5.50
2018-12-10T06:36:34.877Z,5.70
2018-12-10T06:39:02.433Z,5.70
2018-12-10T06:41:30.008Z,5.50
2018-12-10T06:43:57.554Z,5.60
2018-12-10T06:46:27.062Z,5.60
2018-12-10T06:48:54.607Z,5.50
2018-12-10T06:51:22.959Z,5.80
2018-12-10T06:53:50.496Z,5.80
2018-12-10T06:56:18.060Z,5.70
2018-12-10T06:58:46.592Z,5.80
2018-12-10T07:01:15.103Z,5.80
2018-12-10T07:03:42.880Z,5.60
2018-12-10T07:06:10.423Z,5.40
2018-12-10T07:08:37.998Z,5.40
2018-12-10T07:11:05.573Z,5.30
2018-12-10T07:13:33.139Z,5.20
2018-12-10T07:16:00.676Z,5.60
2018-12-10T07:18:28.247Z,5.60
2018-12-10T07:20:55.818Z,5.70
2018-12-10T07:23:23.351Z,5.90
2018-12-10T07:25:51.899Z,6.10
2018-12-10T07:28:19.436Z,6.00
2018-12-10T07:30:47.037Z,6.00
2018-12-10T07:33:14.662Z,6.00
2018-12-10T07:35:43.228Z,6.00
2018-12-10T07:38:11.741Z,5.90
2018-12-10T07:40:39.319Z,5.80
2018-12-10T07:43:08.852Z,6.00
2018-12-10T07:45:36.382Z,5.90
2018-12-10T07:48:05.901Z,5.90
2018-12-10T07:50:33.480Z,5.90
2018-12-10T07:53:01.048Z,5.80
2018-12-10T07:55:28.593Z,5.60
2018-12-10T07:57:56.167Z,5.60
2018-12-10T08:00:25.015Z,5.70
2018-12-10T08:02:52.596Z,5.70
2018-12-10T08:05:20.135Z,5.80
2018-12-10T08:07:48.450Z,5.80
2018-12-10T08:10:16.015Z,5.70
2018-12-10T08:12:43.563Z,5.70
2018-12-10T08:15:11.903Z,5.70
2018-12-10T08:17:39.452Z,5.70
2018-12-10T08:20:07.023Z,5.70
2018-12-10T08:22:34.563Z,5.80
2018-12-10T08:25:02.129Z,5.80
2018-12-10T08:27:29.700Z,5.80
2018-12-10T08:29:57.277Z,5.80
2018-12-10T08:32:25.595Z,5.90
2018-12-10T08:34:53.167Z,5.80
2018-12-10T08:37:20.717Z,5.90
2018-12-10T08:39:48.281Z,5.90
2018-12-10T08:42:15.825Z,6.00
2018-12-10T08:44:43.386Z,6.00
2018-12-10T08:47:16.069Z,6.00
2018-12-10T08:49:38.543Z,6.10
2018-12-10T08:52:06.092Z,6.30
2018-12-10T08:54:33.619Z,6.20
2018-12-10T08:57:01.291Z,6.00
2018-12-10T08:59:28.758Z,5.90
2018-12-10T09:01:57.322Z,6.00
2018-12-10T09:04:24.851Z,6.00
2018-12-10T09:06:52.432Z,6.10
2018-12-10T09:09:19.972Z,6.10
2018-12-10T09:11:47.742Z,6.10
2018-12-10T09:14:15.279Z,6.00
2018-12-10T09:19:16.711Z,6.00
2018-12-10T09:21:44.288Z,5.90
2018-12-10T09:24:11.831Z,5.90
2018-12-10T09:26:39.412Z,5.80
2018-12-10T09:29:06.956Z,6.00
2018-12-10T09:31:35.292Z,6.10
2018-12-10T09:34:02.834Z,6.10
2018-12-10T09:36:30.410Z,6.20
2018-12-10T09:38:58.932Z,6.30
2018-12-10T09:41:26.627Z,6.20
2018-12-10T09:43:54.155Z,6.30
2018-12-10T09:46:27.499Z,6.30
2018-12-10T09:48:49.311Z,6.20
2018-12-10T09:51:17.862Z,6.30
2018-12-10T09:53:45.452Z,6.30
2018-12-10T09:56:12.991Z,6.30
2018-12-10T09:58:40.561Z,6.40
2018-12-10T10:01:08.100Z,6.50
2018-12-10T10:03:35.672Z,6.30
2018-12-10T10:06:03.209Z,6.50
2018-12-10T10:08:32.720Z,6.50
2018-12-10T10:11:00.255Z,6.60
2018-12-10T10:13:27.828Z,6.70
2018-12-10T10:15:55.383Z,6.70
2018-12-10T10:18:22.956Z,6.80
2018-12-10T10:20:50.492Z,6.80
2018-12-10T10:23:18.061Z,6.60
2018-12-10T10:25:45.597Z,6.50
2018-12-10T10:28:13.167Z,6.40
2018-12-10T10:30:44.052Z,6.40
2018-12-10T10:33:11.317Z,6.40
2018-12-10T10:35:38.793Z,6.40
2018-12-10T10:38:07.336Z,6.60
2018-12-10T10:40:34.872Z,6.60
2018-12-10T10:43:02.441Z,6.80
2018-12-10T10:45:34.758Z,6.80
2018-12-10T10:47:58.337Z,6.80
2018-12-10T10:50:26.853Z,6.80
2018-12-10T10:52:54.401Z,6.90
2018-12-10T10:55:21.973Z,7.00
2018-12-10T10:57:49.550Z,7.30
2018-12-10T11:03:31.206Z,7.20
2018-12-10T11:05:58.747Z,7.20
2018-12-10T11:08:26.328Z,7.30
2018-12-10T11:10:53.871Z,7.30
2018-12-10T11:13:21.468Z,7.30
2018-12-10T11:15:49.058Z,6.90
2018-12-10T11:18:16.653Z,6.80
2018-12-10T11:20:45.165Z,6.90
2018-12-10T11:23:12.763Z,7.00
2018-12-10T11:25:40.339Z,6.80
2018-12-10T11:28:07.924Z,6.80
2018-12-10T11:30:35.469Z,7.20
2018-12-10T11:33:03.028Z,7.20
2018-12-10T11:35:32.550Z,7.50
2018-12-10T11:38:00.084Z,7.60
2018-12-10T11:40:27.656Z,7.50
2018-12-10T11:42:55.224Z,7.50
2018-12-10T11:45:22.756Z,7.00
2018-12-10T11:47:50.323Z,7.00
2018-12-10T11:50:17.997Z,7.10
2018-12-10T11:52:46.244Z,6.90
2018-12-10T11:55:14.284Z,6.80
2018-12-10T11:57:41.855Z,7.00
2018-12-10T12:00:09.400Z,7.30
2018-12-10T12:02:37.958Z,7.70
2018-12-10T12:05:05.527Z,7.40
2018-12-10T12:07:33.075Z,7.40
2018-12-10T12:10:00.643Z,7.60
2018-12-10T12:12:28.980Z,7.40
2018-12-10T12:14:56.555Z,7.40
2018-12-10T12:17:24.092Z,7.70
2018-12-10T12:19:51.658Z,7.50
2018-12-10T12:22:19.229Z,7.40
2018-12-10T12:24:48.477Z,7.30
2018-12-10T12:27:16.049Z,7.30
2018-12-10T12:29:43.592Z,7.50
2018-12-10T12:32:11.176Z,7.40
2018-12-10T12:34:38.708Z,7.40
2018-12-10T12:37:07.257Z,7.10
2018-12-10T12:39:35.569Z,7.10
2018-12-10T12:42:03.141Z,7.10
2018-12-10T12:44:30.675Z,7.10
2018-12-10T12:46:58.249Z,7.20
2018-12-10T12:49:25.788Z,7.30
2018-12-10T12:51:53.380Z,7.10
2018-12-10T12:54:20.923Z,7.40
2018-12-10T12:56:48.470Z,8.00
2018-12-10T12:59:16.036Z,8.20
2018-12-10T13:01:49.083Z,8.20
2018-12-10T13:04:11.628Z,8.20
2018-12-10T13:06:39.201Z,8.20
2018-12-10T13:09:06.769Z,8.10
2018-12-10T13:11:34.339Z,8.20
2018-12-10T13:14:01.907Z,7.90
2018-12-10T13:16:29.445Z,7.90
2018-12-10T13:18:57.019Z,7.80
2018-12-10T13:21:24.589Z,7.90
2018-12-10T13:23:52.160Z,7.80
2018-12-10T13:26:19.701Z,7.70
2018-12-10T13:28:47.271Z,7.50
2018-12-10T13:31:14.839Z,7.60
2018-12-10T13:33:42.409Z,7.50
2018-12-10T13:36:11.676Z,7.40
2018-12-10T13:38:39.243Z,7.40
2018-12-10T13:41:06.833Z,7.50
2018-12-10T13:43:34.399Z,7.60
2018-12-10T13:46:02.980Z,7.50
2018-12-10T13:48:30.527Z,7.50
2018-12-10T13:50:59.891Z,7.40
2018-12-10T13:53:27.463Z,7.40
2018-12-10T13:55:55.008Z,7.40
2018-12-10T13:58:22.551Z,7.40
2018-12-10T14:00:51.220Z,7.40
2018-12-10T14:03:17.712Z,7.30
2018-12-10T14:05:47.666Z,6.90
2018-12-10T14:08:13.632Z,6.90
2018-12-10T14:10:41.200Z,6.80
2018-12-10T14:13:08.747Z,6.70
2018-12-10T14:15:36.325Z,6.50
2018-12-10T14:18:03.878Z,6.00
2018-12-10T14:20:31.449Z,5.90
2018-12-10T14:22:58.981Z,5.70
2018-12-10T14:25:26.565Z,5.90
2018-12-10T14:27:54.099Z,6.00
2018-12-10T14:30:23.441Z,6.10
2018-12-10T14:32:50.980Z,6.10
2018-12-10T14:35:18.543Z,6.20
2018-12-10T14:37:46.077Z,6.30
2018-12-10T14:40:13.820Z,6.20
2018-12-10T14:42:49.231Z,6.20
2018-12-10T14:45:16.805Z,6.20
2018-12-10T14:47:44.344Z,6.20
2018-12-10T14:50:11.929Z,6.30
2018-12-10T14:52:39.493Z,6.20
2018-12-10T14:55:08.055Z,6.20
2018-12-10T14:57:37.559Z,6.10
2018-12-10T15:00:05.134Z,6.10
2018-12-10T15:02:32.677Z,6.00
2018-12-10T15:05:00.262Z,6.00
2018-12-10T15:07:27.824Z,6.10
2018-12-10T15:09:56.167Z,6.10
2018-12-10T15:12:23.708Z,6.10
2018-12-10T15:14:51.281Z,6.00
2018-12-10T15:17:18.852Z,6.00
2018-12-10T15:19:46.415Z,6.10
2018-12-10T15:22:13.948Z,6.20
2018-12-10T15:24:41.519Z,6.10
2018-12-10T15:27:09.069Z,6.00
2018-12-10T15:29:36.653Z,6.10
2018-12-10T15:32:04.192Z,6.10
2018-12-10T15:34:31.761Z,6.20
2018-12-10T15:36:59.304Z,6.10
2018-12-10T15:39:26.882Z,6.10
2018-12-10T15:41:55.196Z,6.00
2018-12-10T15:44:22.763Z,6.00
2018-12-10T15:46:51.295Z,6.00
2018-12-10T15:49:18.868Z,6.10
2018-12-10T15:51:46.420Z,6.10
2018-12-10T15:54:13.984Z,5.90
2018-12-10T15:56:41.523Z,5.90
2018-12-10T15:59:09.860Z,5.80
2018-12-10T16:01:37.392Z,5.80
2018-12-10T16:04:04.967Z,5.90
2018-12-10T16:06:32.521Z,6.00
2018-12-10T16:09:00.059Z,6.00
2018-12-10T16:11:29.569Z,5.90
2018-12-10T16:13:57.104Z,5.90
2018-12-10T16:16:25.449Z,5.90
2018-12-10T16:18:53.020Z,5.90
2018-12-10T16:21:20.560Z,6.00
2018-12-10T16:23:48.135Z,6.10
2018-12-10T16:26:16.477Z,6.00
2018-12-10T16:28:44.045Z,6.00
2018-12-10T16:31:11.577Z,5.90
2018-12-10T16:33:39.152Z,5.90
2018-12-10T16:36:06.726Z,5.90
2018-12-10T16:38:34.294Z,5.90
2018-12-10T16:41:01.835Z,5.90
2018-12-10T16:43:31.368Z,5.90
2018-12-10T16:45:58.900Z,5.90
2018-12-10T16:48:26.462Z,5.90
2018-12-10T16:50:54.000Z,5.90
2018-12-10T16:53:21.582Z,6.00
2018-12-10T16:55:49.119Z,5.90
2018-12-10T16:58:16.696Z,5.90
2018-12-10T17:00:44.257Z,5.80
2018-12-10T17:03:11.833Z,5.80
2018-12-10T17:05:39.367Z,5.90
2018-12-10T17:08:07.888Z,6.00
2018-12-10T17:10:35.419Z,6.00
2018-12-10T17:13:02.989Z,5.90
2018-12-10T17:15:30.565Z,6.00
2018-12-10T17:17:59.092Z,6.10
2018-12-10T17:20:26.627Z,6.00
2018-12-10T17:22:54.196Z,6.00
2018-12-10T17:25:21.773Z,6.00
2018-12-10T17:27:49.350Z,6.00
2018-12-10T17:30:17.694Z,6.10
2018-12-10T17:32:46.190Z,6.00
2018-12-10T17:35:14.000Z,6.20
2018-12-10T17:37:41.564Z,6.20
2018-12-10T17:40:09.105Z,6.10
2018-12-10T17:42:36.676Z,6.10
2018-12-10T17:45:05.282Z,6.00
2018-12-10T17:47:35.028Z,6.10
2018-12-10T17:50:03.477Z,6.10
2018-12-10T17:52:31.144Z,6.10
2018-12-10T17:55:00.434Z,6.00
2018-12-10T17:57:28.600Z,6.00
2018-12-10T17:59:57.344Z,5.90
2018-12-10T18:02:25.581Z,5.90
2018-12-10T18:04:54.118Z,6.10
2018-12-10T18:07:22.344Z,6.10
2018-12-10T18:09:50.784Z,5.90
2018-12-10T18:12:18.352Z,5.90
2018-12-10T18:14:45.923Z,6.00
2018-12-10T18:17:13.459Z,5.90
2018-12-10T18:19:41.026Z,5.90
2018-12-10T18:22:09.595Z,6.00
2018-12-10T18:24:37.163Z,6.00
2018-12-10T18:27:04.711Z,6.10
2018-12-10T18:29:32.277Z,6.20
2018-12-10T18:31:59.843Z,6.30
2018-12-10T18:34:27.568Z,6.20
2018-12-10T18:36:55.158Z,6.10
2018-12-10T18:39:23.688Z,6.10
2018-12-10T18:41:53.211Z,6.10
2018-12-10T18:44:21.706Z,6.20
2018-12-10T18:46:49.287Z,6.30
2018-12-10T18:49:16.828Z,6.30
2018-12-10T18:51:45.367Z,6.40
2018-12-10T18:54:12.917Z,6.40
2018-12-10T18:56:40.494Z,6.50
2018-12-10T18:59:08.023Z,6.50
2018-12-10T19:01:35.602Z,6.50
2018-12-10T19:04:03.244Z,6.50
2018-12-10T19:06:30.822Z,6.50
2018-12-10T19:08:59.342Z,6.70
2018-12-10T19:11:26.916Z,6.70
2018-12-10T19:13:54.452Z,6.60
2018-12-10T19:16:22.047Z,6.60
2018-12-10T19:18:49.585Z,6.70
2018-12-10T19:21:18.111Z,6.60
2018-12-10T19:23:45.675Z,6.60
2018-12-10T19:26:13.207Z,6.70
2018-12-10T19:28:40.774Z,6.70
2018-12-10T19:31:09.275Z,6.70
2018-12-10T19:33:36.844Z,6.80
2018-12-10T19:36:04.389Z,6.80
2018-12-10T19:38:32.049Z,6.60
2018-12-10T19:40:59.583Z,6.40
2018-12-10T19:43:27.147Z,6.40
2018-12-10T19:45:55.685Z,6.40
2018-12-10T19:48:23.261Z,6.40
2018-12-10T19:50:51.906Z,6.40
2018-12-10T19:53:21.435Z,6.50
2018-12-10T19:55:48.974Z,6.50
2018-12-10T20:00:51.197Z,6.50
2018-12-10T20:03:18.757Z,6.50
2018-12-10T20:05:51.988Z,6.30
2018-12-10T20:08:19.532Z,6.20
2018-12-10T20:10:47.320Z,6.30
2018-12-10T20:13:14.719Z,6.30
2018-12-10T20:15:42.299Z,6.20
2018-12-10T20:18:10.076Z,6.30
2018-12-10T20:20:37.609Z,6.30
2018-12-10T20:23:05.184Z,6.20
2018-12-10T20:25:33.027Z,6.30
2018-12-10T20:28:00.626Z,6.30
2018-12-10T20:30:29.118Z,6.20
2018-12-10T20:32:56.720Z,6.10
2018-12-10T20:35:24.294Z,6.30
2018-12-10T20:37:51.898Z,6.30
2018-12-10T20:40:19.432Z,6.20
2018-12-10T20:42:47.022Z,6.10
2018-12-10T20:45:15.331Z,6.10
2018-12-10T20:47:42.892Z,6.20
2018-12-10T20:50:10.439Z,6.10
2018-12-10T20:52:38.016Z,6.10
2018-12-10T20:55:06.128Z,6.10
2018-12-10T20:57:33.666Z,6.10
2018-12-10T21:00:01.231Z,6.00
2018-12-10T21:02:29.374Z,6.00
2018-12-10T21:04:56.375Z,6.10
2018-12-10T21:07:24.727Z,6.10
2018-12-10T21:09:52.261Z,6.10
2018-12-10T21:12:19.836Z,6.10
2018-12-10T21:14:47.371Z,6.20
2018-12-10T21:17:14.939Z,6.20
2018-12-10T21:19:42.475Z,6.10
2018-12-10T21:22:11.993Z,6.30
2018-12-10T21:24:39.585Z,6.30
2018-12-10T21:27:07.160Z,6.30
2018-12-10T21:29:35.475Z,6.40
2018-12-10T21:32:03.137Z,6.40
2018-12-10T21:34:30.681Z,6.40
2018-12-10T21:36:59.195Z,6.30
2018-12-10T21:39:26.790Z,6.30
2018-12-10T21:41:54.371Z,6.20
2018-12-10T21:44:21.937Z,6.30
2018-12-10T21:46:49.480Z,5.90
2018-12-10T21:49:17.055Z,5.90
2018-12-10T21:51:44.641Z,5.90
2018-12-10T21:54:12.255Z,5.90
2018-12-10T21:56:39.803Z,6.00
2018-12-10T21:59:07.372Z,6.00
2018-12-10T22:01:34.945Z,5.70
2018-12-10T22:04:02.536Z,5.60
2018-12-10T22:06:30.073Z,5.50
2018-12-10T22:08:57.634Z,5.40
2018-12-10T22:11:26.169Z,5.30
2018-12-10T22:13:53.740Z,5.40
2018-12-10T22:16:21.279Z,5.40
2018-12-10T22:18:48.857Z,5.40
2018-12-10T22:21:16.655Z,5.30
2018-12-10T22:23:44.222Z,5.30
2018-12-10T22:26:11.771Z,5.30
2018-12-10T22:28:39.636Z,5.30
2018-12-10T22:31:07.188Z,5.30
2018-12-10T22:33:34.760Z,5.20
2018-12-10T22:36:02.293Z,5.30
2018-12-10T22:38:29.860Z,5.20
2018-12-10T22:40:57.403Z,5.10
2018-12-10T22:43:24.974Z,5.10
2018-12-10T22:45:52.514Z,5.10
2018-12-10T22:48:20.083Z,5.10
2018-12-10T22:50:47.624Z,5.00
2018-12-10T22:53:16.133Z,5.00
2018-12-10T22:55:43.675Z,5.10
2018-12-10T22:58:11.211Z,5.20
2018-12-10T23:00:41.546Z,5.30
2018-12-10T23:03:09.083Z,5.20
2018-12-10T23:05:36.669Z,5.20
2018-12-10T23:08:04.235Z,5.30
2018-12-10T23:10:32.746Z,5.20
2018-12-10T23:13:00.320Z,5.20
2018-12-10T23:15:28.625Z,5.20
2018-12-10T23:17:56.200Z,5.20
2018-12-10T23:20:23.737Z,5.10
2018-12-10T23:22:51.311Z,5.10
2018-12-10T23:25:18.852Z,5.00
2018-12-10T23:27:46.420Z,5.00
2018-12-10T23:30:13.955Z,4.90
2018-12-10T23:32:41.525Z,4.90
2018-12-10T23:35:09.100Z,5.10
2018-12-10T23:37:36.664Z,5.20
2018-12-10T23:40:06.176Z,5.30
2018-12-10T23:42:33.720Z,5.30
2018-12-10T23:45:01.291Z,5.30
2018-12-10T23:47:28.828Z,5.40
2018-12-10T23:49:56.397Z,5.50
2018-12-10T23:52:23.973Z,5.30
2018-12-10T23:54:51.548Z,5.50
2018-12-10T23:57:19.092Z,5.40
2018-12-10T23:59:46.660Z,5.50
